Time;durP1;ratioP1;P1;durP2;ratioP2;P2;SDS_P1;SDS_P2;PMS_P1;PMS_P2;Temp;Humidity;BMP_temperature;BMP_pressure;BME280_temperature;BME280_humidity;BME280_pressure;Samples;Min_cycle;Max_cycle;Signal;HPM_P1;HPM_P2
2023/05/16 00:01:22;;;;;;;5.22;2.35;;;12.60;99.90;;;;;;5050438;28;20280;-72
2023/05/16 00:03:49;;;;;;;6.25;3.25;;;12.50;99.90;;;;;;5052224;28;20202;-75
2023/05/16 00:06:18;;;;;;;4.22;2.28;;;12.50;99.90;;;;;;5051777;28;20308;-73
2023/05/16 00:08:45;;;;;;;8.57;2.70;;;12.50;99.90;;;;;;5053067;28;20210;-72
2023/05/16 00:11:12;;;;;;;6.90;2.35;;;12.40;99.90;;;;;;5051200;28;20237;-73
2023/05/16 00:13:41;;;;;;;6.60;2.60;;;12.30;99.90;;;;;;5053135;28;20228;-72
2023/05/16 00:16:08;;;;;;;10.95;2.92;;;12.20;99.90;;;;;;5056469;28;20653;-71
2023/05/16 00:18:36;;;;;;;7.57;2.80;;;12.20;99.90;;;;;;5056519;28;20271;-72
2023/05/16 00:21:03;;;;;;;9.82;3.60;;;12.10;99.90;;;;;;5055382;28;20205;-72
2023/05/16 00:23:32;;;;;;;7.20;3.33;;;12.10;99.90;;;;;;5055093;28;20227;-73
2023/05/16 00:25:58;;;;;;;7.45;2.97;;;12.10;99.90;;;;;;5060669;28;20339;-70
2023/05/16 00:28:25;;;;;;;6.22;3.25;;;12.10;99.90;;;;;;5055954;28;20202;-73
2023/05/16 00:30:52;;;;;;;8.23;2.90;;;12.00;99.90;;;;;;5051183;28;20207;-72
2023/05/16 00:33:19;;;;;;;9.30;3.95;;;12.00;99.90;;;;;;5055434;28;20229;-72
2023/05/16 00:35:46;;;;;;;6.75;2.70;;;12.00;99.90;;;;;;5054981;28;20207;-72
2023/05/16 00:38:13;;;;;;;9.65;2.83;;;11.90;99.90;;;;;;5055798;28;20237;-72
2023/05/16 00:40:41;;;;;;;8.40;4.60;;;11.90;99.90;;;;;;5055211;28;20294;-73
2023/05/16 00:43:08;;;;;;;7.05;2.40;;;11.80;99.90;;;;;;5059088;28;20221;-71
2023/05/16 00:45:35;;;;;;;9.57;3.80;;;11.90;99.90;;;;;;5058845;28;20306;-72
2023/05/16 00:48:04;;;;;;;11.75;3.47;;;11.90;99.90;;;;;;5055234;28;20212;-73
2023/05/16 00:50:32;;;;;;;16.85;3.28;;;11.90;99.90;;;;;;5059614;28;20207;-73
2023/05/16 00:52:59;;;;;;;19.20;3.17;;;11.90;99.90;;;;;;5050150;28;20672;-72
2023/05/16 00:55:26;;;;;;;10.98;3.45;;;11.80;99.90;;;;;;5054610;28;20733;-72
2023/05/16 00:57:54;;;;;;;12.10;5.88;;;11.80;99.90;;;;;;5059212;28;20294;-73
2023/05/16 01:00:21;;;;;;;10.57;3.08;;;11.70;99.90;;;;;;5052294;28;20288;-72
2023/05/16 01:02:52;;;;;;;7.00;2.60;;;11.80;99.90;;;;;;5055725;28;20759;-72
2023/05/16 01:05:19;;;;;;;15.95;3.20;;;11.80;99.90;;;;;;5055487;28;20679;-73
2023/05/16 01:07:46;;;;;;;12.50;4.20;;;11.80;99.90;;;;;;5048889;28;20686;-73
2023/05/16 01:10:13;;;;;;;11.48;2.78;;;11.70;99.90;;;;;;5045787;28;20298;-73
2023/05/16 01:12:54;;;;;;;5.93;1.85;;;11.80;99.90;;;;;;5046880;28;20565;-72
2023/05/16 01:15:26;;;;;;;11.43;3.35;;;11.80;99.90;;;;;;5060997;28;20234;-72
2023/05/16 01:18:00;;;;;;;11.30;2.53;;;11.90;99.90;;;;;;5049469;28;20206;-72
2023/05/16 01:20:37;;;;;;;8.18;3.22;;;12.00;99.90;;;;;;5053995;28;20236;-72
2023/05/16 01:23:23;;;;;;;18.98;2.70;;;11.90;99.90;;;;;;5035623;28;20632;-73
2023/05/16 01:25:58;;;;;;;13.52;2.45;;;11.90;99.90;;;;;;5052477;28;20316;-71
2023/05/16 01:28:27;;;;;;;11.60;2.60;;;11.90;99.90;;;;;;5034831;28;20231;-72
2023/05/16 01:30:55;;;;;;;13.25;2.53;;;11.90;99.90;;;;;;5050667;28;20205;-72
2023/05/16 01:33:22;;;;;;;18.80;2.60;;;11.90;99.90;;;;;;5058714;28;20222;-73
2023/05/16 01:35:58;;;;;;;9.60;2.30;;;11.90;99.90;;;;;;5054501;28;20313;-71
2023/05/16 01:38:26;;;;;;;13.00;3.08;;;11.90;99.90;;;;;;5050663;28;20198;-72
2023/05/16 01:40:56;;;;;;;12.27;3.30;;;11.80;99.90;;;;;;5056517;28;20209;-71
2023/05/16 01:43:33;;;;;;;9.07;2.85;;;11.80;99.90;;;;;;5055326;28;20305;-72
2023/05/16 01:46:05;;;;;;;15.38;3.65;;;11.80;99.90;;;;;;5039782;28;20229;-72
2023/05/16 01:48:39;;;;;;;10.35;3.10;;;11.80;99.90;;;;;;5049807;28;20297;-73
2023/05/16 01:51:07;;;;;;;7.63;2.72;;;11.80;99.90;;;;;;5055153;28;20207;-71
2023/05/16 01:53:38;;;;;;;14.70;3.17;;;11.70;99.90;;;;;;5053994;28;20281;-72
2023/05/16 01:56:09;;;;;;;13.90;4.32;;;11.70;99.90;;;;;;5050438;28;20209;-72
2023/05/16 01:58:39;;;;;;;14.80;3.33;;;11.60;99.90;;;;;;5054341;28;20223;-72
2023/05/16 02:01:06;;;;;;;10.07;2.78;;;11.70;99.90;;;;;;5053523;28;20671;-72
2023/05/16 02:03:34;;;;;;;10.18;2.22;;;11.70;99.90;;;;;;5053566;28;20688;-71
2023/05/16 02:06:01;;;;;;;12.30;3.25;;;11.70;99.90;;;;;;5054090;28;20669;-72
2023/05/16 02:08:28;;;;;;;10.65;3.25;;;11.70;99.90;;;;;;5054110;28;20624;-72
2023/05/16 02:10:55;;;;;;;16.33;3.30;;;11.70;99.90;;;;;;5056726;28;20212;-72
2023/05/16 02:13:22;;;;;;;15.18;3.10;;;11.70;99.90;;;;;;5057900;28;20564;-72
2023/05/16 02:15:51;;;;;;;11.95;3.50;;;11.60;99.90;;;;;;5057725;28;20209;-72
2023/05/16 02:18:19;;;;;;;18.63;3.05;;;11.60;99.90;;;;;;5053756;28;20704;-72
2023/05/16 02:20:46;;;;;;;11.43;2.95;;;11.70;99.90;;;;;;5051118;28;20840;-73
2023/05/16 02:23:14;;;;;;;12.65;2.80;;;11.70;99.90;;;;;;5054190;28;20312;-73
2023/05/16 02:25:41;;;;;;;7.10;2.90;;;11.70;99.90;;;;;;5052766;28;20667;-72
2023/05/16 02:28:08;;;;;;;17.42;4.25;;;11.70;99.90;;;;;;5052738;28;20204;-71
2023/05/16 02:30:35;;;;;;;10.52;3.85;;;11.80;99.90;;;;;;5038787;28;20265;-72
2023/05/16 02:33:03;;;;;;;13.23;4.18;;;11.70;99.90;;;;;;5040812;28;20313;-71
2023/05/16 02:35:30;;;;;;;15.00;3.90;;;11.70;99.90;;;;;;5053308;28;20580;-72
2023/05/16 02:37:57;;;;;;;12.27;3.88;;;11.60;99.90;;;;;;5053826;28;20262;-72
2023/05/16 02:40:24;;;;;;;10.98;3.72;;;11.50;99.90;;;;;;5038859;28;20198;-73
2023/05/16 02:42:51;;;;;;;16.02;3.90;;;11.50;99.90;;;;;;5049878;28;20220;-72
2023/05/16 02:45:17;;;;;;;8.25;2.90;;;11.60;99.90;;;;;;5044265;28;20289;-72
2023/05/16 02:47:44;;;;;;;14.18;4.30;;;11.60;99.90;;;;;;5054012;28;20660;-72
2023/05/16 02:50:13;;;;;;;13.75;3.65;;;11.60;99.90;;;;;;5049623;28;20207;-73
2023/05/16 02:52:40;;;;;;;14.20;3.00;;;11.50;99.90;;;;;;5059181;28;20220;-72
2023/05/16 02:55:07;;;;;;;14.10;3.50;;;11.50;99.90;;;;;;5040354;28;20206;-71
2023/05/16 02:57:34;;;;;;;15.85;4.60;;;11.40;99.90;;;;;;5055404;28;20282;-71
2023/05/16 03:00:01;;;;;;;14.25;3.67;;;11.40;99.90;;;;;;5042446;28;20207;-74
2023/05/16 03:02:28;;;;;;;17.30;6.65;;;11.30;99.90;;;;;;5053532;28;20220;-73
2023/05/16 03:04:55;;;;;;;13.15;3.35;;;11.30;99.90;;;;;;5058509;28;20228;-72
2023/05/16 03:07:24;;;;;;;17.27;4.00;;;11.20;99.90;;;;;;5049694;28;20569;-72
2023/05/16 03:09:51;;;;;;;10.85;2.85;;;11.20;99.90;;;;;;5052132;28;20295;-72
2023/05/16 03:12:18;;;;;;;13.02;2.92;;;11.10;99.90;;;;;;5052231;28;20247;-72
2023/05/16 03:14:45;;;;;;;8.27;3.00;;;11.10;99.90;;;;;;5052775;28;20221;-71
2023/05/16 03:17:12;;;;;;;12.60;3.47;;;10.90;99.90;;;;;;5052652;28;21137;-73
2023/05/16 03:19:39;;;;;;;16.17;5.03;;;10.90;99.90;;;;;;5053546;28;20290;-72
2023/05/16 03:22:06;;;;;;;17.25;4.05;;;10.90;99.90;;;;;;5052156;28;20309;-73
2023/05/16 03:24:34;;;;;;;16.67;3.90;;;10.80;99.90;;;;;;5052774;28;20634;-71
2023/05/16 03:27:02;;;;;;;10.00;2.60;;;10.70;99.90;;;;;;5045892;28;20651;-71
2023/05/16 03:29:29;;;;;;;9.05;2.90;;;10.70;99.90;;;;;;5053137;28;20228;-71
2023/05/16 03:31:56;;;;;;;15.30;3.55;;;10.70;99.90;;;;;;5053491;28;20272;-72
2023/05/16 03:34:23;;;;;;;14.48;3.35;;;10.60;99.90;;;;;;5052894;28;20634;-73
2023/05/16 03:36:50;;;;;;;17.63;3.30;;;10.60;99.90;;;;;;5052910;28;20299;-73
2023/05/16 03:39:17;;;;;;;12.88;2.85;;;10.60;99.90;;;;;;5056655;28;20281;-71
2023/05/16 03:41:46;;;;;;;17.20;4.35;;;10.50;99.90;;;;;;5053957;28;20224;-72
2023/05/16 03:44:13;;;;;;;11.15;3.47;;;10.50;99.90;;;;;;5051822;28;20206;-73
2023/05/16 03:46:40;;;;;;;11.13;3.58;;;10.50;99.90;;;;;;5052598;28;20210;-73
2023/05/16 03:49:07;;;;;;;14.38;3.15;;;10.50;99.90;;;;;;5052070;28;20196;-72
2023/05/16 03:51:35;;;;;;;29.30;3.85;;;10.50;99.90;;;;;;5048691;28;20219;-72
2023/05/16 03:54:01;;;;;;;10.50;2.72;;;10.50;99.90;;;;;;5053261;28;20200;-72
2023/05/16 03:56:46;;;;;;;20.17;3.55;;;10.50;99.90;;;;;;5051584;28;20249;-73
2023/05/16 03:59:13;;;;;;;10.73;2.67;;;10.60;99.90;;;;;;5049602;28;20207;-73
2023/05/16 04:01:54;;;;;;;11.30;3.17;;;10.70;99.90;;;;;;5050915;28;20732;-72
2023/05/16 04:04:20;;;;;;;14.80;2.83;;;10.70;99.90;;;;;;5050930;28;20286;-73
2023/05/16 04:06:53;;;;;;;13.75;3.10;;;10.70;99.90;;;;;;5050298;28;20658;-73
2023/05/16 04:09:20;;;;;;;11.07;2.90;;;10.90;99.90;;;;;;5052614;28;20222;-73
2023/05/16 04:11:50;;;;;;;15.43;3.78;;;10.90;99.90;;;;;;5056481;28;20253;-73
2023/05/16 04:14:17;;;;;;;15.10;2.92;;;11.00;99.90;;;;;;5052960;28;20224;-72
2023/05/16 04:16:44;;;;;;;15.80;4.25;;;11.00;99.90;;;;;;5053001;28;20238;-72
2023/05/16 04:19:11;;;;;;;17.55;4.20;;;11.10;99.90;;;;;;5048564;28;20281;-72
2023/05/16 04:21:38;;;;;;;10.80;3.67;;;11.20;99.90;;;;;;5037869;28;20220;-73
2023/05/16 04:24:06;;;;;;;17.67;4.45;;;11.30;99.90;;;;;;5037678;28;20199;-72
2023/05/16 04:26:33;;;;;;;12.85;3.08;;;11.40;99.90;;;;;;5039466;28;20702;-72
2023/05/16 04:29:01;;;;;;;14.98;2.95;;;11.50;99.90;;;;;;5025178;28;20198;-72
2023/05/16 04:31:28;;;;;;;16.20;4.00;;;11.60;99.90;;;;;;5049325;28;20578;-73
2023/05/16 04:33:55;;;;;;;21.75;4.18;;;11.90;99.90;;;;;;5040023;28;20272;-72
2023/05/16 04:36:22;;;;;;;13.52;5.30;;;11.90;99.90;;;;;;5045436;28;20206;-74
2023/05/16 04:38:49;;;;;;;13.38;3.22;;;11.80;99.90;;;;;;5049842;28;20206;-73
2023/05/16 04:41:16;;;;;;;11.77;3.60;;;11.70;99.90;;;;;;5054744;28;20624;-73
2023/05/16 04:43:44;;;;;;;16.80;4.70;;;11.60;99.90;;;;;;5057743;28;20207;-74
2023/05/16 04:46:14;;;;;;;19.35;4.80;;;11.50;99.90;;;;;;5047212;28;20209;-72
2023/05/16 04:48:41;;;;;;;15.18;3.28;;;11.50;99.90;;;;;;5052836;28;20212;-72
2023/05/16 04:51:08;;;;;;;14.15;3.60;;;11.50;99.90;;;;;;5051554;28;20237;-71
2023/05/16 04:53:35;;;;;;;10.82;2.75;;;11.50;99.90;;;;;;5056987;28;20316;-72
2023/05/16 04:56:01;;;;;;;9.50;3.20;;;11.60;99.90;;;;;;5046019;28;20667;-72
2023/05/16 04:58:28;;;;;;;19.73;4.00;;;11.70;99.90;;;;;;5049076;28;20288;-72
2023/05/16 05:00:55;;;;;;;14.73;3.47;;;12.00;99.90;;;;;;5051387;28;20202;-72
2023/05/16 05:03:23;;;;;;;21.65;4.13;;;12.20;99.90;;;;;;5055053;28;20230;-72
2023/05/16 05:05:50;;;;;;;13.68;3.10;;;12.40;99.90;;;;;;5055524;28;20616;-74
2023/05/16 05:08:18;;;;;;;9.15;3.10;;;12.80;99.90;;;;;;5054908;28;20706;-73
2023/05/16 05:10:45;;;;;;;9.63;3.50;;;13.30;99.90;;;;;;5051955;28;20290;-72
2023/05/16 05:13:12;;;;;;;9.98;3.15;;;13.80;99.90;;;;;;5054871;28;20262;-74
2023/05/16 05:15:41;;;;;;;9.90;3.38;;;14.40;99.90;;;;;;5058187;28;20326;-74
2023/05/16 05:18:08;;;;;;;13.73;3.30;;;15.10;99.90;;;;;;5050414;28;20287;-73
2023/05/16 05:20:36;;;;;;;15.75;3.08;;;15.50;99.90;;;;;;5056297;28;20233;-72
2023/05/16 05:23:03;;;;;;;10.70;3.00;;;16.10;99.90;;;;;;5054261;28;20288;-69
2023/05/16 05:25:32;;;;;;;8.90;3.33;;;16.20;98.20;;;;;;5054942;28;20209;-70
2023/05/16 05:27:59;;;;;;;12.95;3.70;;;16.20;97.70;;;;;;5050237;28;20197;-69
2023/05/16 05:30:26;;;;;;;12.52;3.45;;;16.30;96.80;;;;;;5054401;28;20208;-69
2023/05/16 05:32:55;;;;;;;9.60;2.65;;;16.50;96.40;;;;;;5055553;28;20670;-70
2023/05/16 05:35:22;;;;;;;12.13;3.33;;;16.50;95.80;;;;;;5055741;28;20693;-69
2023/05/16 05:37:50;;;;;;;17.30;5.00;;;16.40;95.70;;;;;;5053467;28;20444;-69
2023/05/16 05:40:17;;;;;;;14.98;4.30;;;16.00;95.40;;;;;;5054183;28;20616;-70
2023/05/16 05:42:44;;;;;;;10.40;3.42;;;15.40;96.60;;;;;;5053861;28;20217;-68
2023/05/16 05:45:11;;;;;;;16.17;4.28;;;15.30;97.70;;;;;;5054422;28;20292;-70
2023/05/16 05:47:39;;;;;;;9.77;3.47;;;15.40;98.00;;;;;;5053794;28;20282;-69
2023/05/16 05:50:07;;;;;;;11.07;3.25;;;15.40;97.70;;;;;;5054380;28;20202;-70
2023/05/16 05:52:34;;;;;;;5.40;2.93;;;16.30;97.20;;;;;;5054040;28;20581;-70
2023/05/16 05:55:02;;;;;;;13.53;3.60;;;17.50;94.50;;;;;;5054148;28;20930;-70
2023/05/16 05:57:29;;;;;;;11.60;3.93;;;18.60;92.30;;;;;;5054573;28;20444;-69
2023/05/16 05:59:56;;;;;;;10.97;3.40;;;19.10;90.10;;;;;;5056495;28;20473;-72
2023/05/16 06:02:23;;;;;;;14.77;2.93;;;19.60;89.00;;;;;;5059336;28;20477;-74
2023/05/16 06:04:50;;;;;;;9.10;3.97;;;19.60;86.80;;;;;;5054293;28;20448;-74
2023/05/16 06:07:18;;;;;;;10.23;3.77;;;19.20;87.10;;;;;;5053354;28;20479;-74
2023/05/16 06:09:45;;;;;;;10.30;3.50;;;18.90;88.40;;;;;;5054529;28;20936;-73
2023/05/16 06:12:14;;;;;;;7.37;2.73;;;19.10;88.30;;;;;;5053901;28;20474;-72
2023/05/16 06:14:40;;;;;;;13.23;3.43;;;18.90;86.90;;;;;;5055528;28;20908;-73
2023/05/16 06:17:08;;;;;;;15.50;3.33;;;18.50;89.00;;;;;;5054094;28;20445;-73
2023/05/16 06:19:35;;;;;;;9.40;2.90;;;18.20;89.30;;;;;;5053417;28;20468;-74
2023/05/16 06:22:04;;;;;;;17.57;3.40;;;18.20;90.10;;;;;;5056644;28;20583;-72
2023/05/16 06:24:31;;;;;;;7.83;3.00;;;19.00;90.00;;;;;;5054798;28;20452;-79
2023/05/16 06:26:58;;;;;;;10.77;3.03;;;19.30;87.90;;;;;;5055555;28;20877;-74
2023/05/16 06:29:27;;;;;;;10.90;2.57;;;19.50;86.00;;;;;;5055310;28;20460;-76
2023/05/16 06:31:53;;;;;;;12.80;3.90;;;19.00;86.60;;;;;;5050648;28;22013;-74
2023/05/16 06:34:26;;;;;;;10.40;2.97;;;18.10;87.80;;;;;;5051709;28;20575;-73
2023/05/16 06:36:53;;;;;;;14.33;4.40;;;17.30;90.30;;;;;;5057510;28;20457;-73
2023/05/16 06:39:20;;;;;;;13.87;3.90;;;17.10;91.10;;;;;;5060123;28;21151;-73
2023/05/16 06:41:46;;;;;;;7.77;2.70;;;17.20;91.20;;;;;;5055397;28;20471;-75
2023/05/16 06:44:13;;;;;;;11.33;3.10;;;17.40;91.10;;;;;;5048990;28;20826;-75
2023/05/16 06:46:42;;;;;;;14.18;3.60;;;17.40;90.50;;;;;;5053406;28;20438;-76
2023/05/16 06:49:09;;;;;;;13.17;3.67;;;17.10;90.20;;;;;;5051154;28;20290;-73
2023/05/16 06:51:36;;;;;;;12.20;2.97;;;16.70;90.70;;;;;;5052401;28;20498;-73
2023/05/16 06:54:03;;;;;;;11.80;2.53;;;16.70;91.60;;;;;;5056574;28;20484;-75
2023/05/16 06:56:30;;;;;;;12.23;3.10;;;17.80;91.00;;;;;;5053189;28;20449;-76
2023/05/16 06:58:57;;;;;;;10.23;2.63;;;18.60;89.20;;;;;;5052304;28;20456;-75
2023/05/16 07:01:25;;;;;;;6.40;2.27;;;19.10;86.30;;;;;;5052515;28;20492;-75
2023/05/16 07:03:53;;;;;;;9.03;2.63;;;18.90;85.70;;;;;;5053737;28;20928;-75
2023/05/16 07:06:20;;;;;;;10.17;2.97;;;18.30;86.50;;;;;;5056530;28;20476;-76
2023/05/16 07:08:47;;;;;;;8.23;2.37;;;17.60;88.40;;;;;;5051598;28;20446;-75
2023/05/16 07:11:14;;;;;;;15.43;3.33;;;17.40;89.30;;;;;;5049929;28;20452;-75
2023/05/16 07:13:41;;;;;;;6.57;2.90;;;17.20;89.50;;;;;;5050495;28;20457;-75
2023/05/16 07:16:08;;;;;;;7.67;2.10;;;17.20;89.10;;;;;;5054033;28;20484;-75
2023/05/16 07:18:35;;;;;;;9.13;3.20;;;17.50;88.80;;;;;;5056062;28;20868;-76
2023/05/16 07:21:04;;;;;;;11.33;3.23;;;17.80;87.70;;;;;;5046034;28;20863;-76
2023/05/16 07:23:31;;;;;;;12.03;2.30;;;18.40;87.00;;;;;;5044884;28;20824;-75
2023/05/16 07:25:58;;;;;;;8.77;2.90;;;19.20;85.70;;;;;;5054343;28;20489;-73
2023/05/16 07:28:25;;;;;;;11.20;2.90;;;20.40;83.40;;;;;;5056698;28;20484;-74
2023/05/16 07:30:53;;;;;;;9.53;2.47;;;21.50;79.80;;;;;;5052120;28;20470;-74
2023/05/16 07:33:20;;;;;;;9.23;3.10;;;21.90;76.40;;;;;;5056808;28;20890;-76
2023/05/16 07:35:48;;;;;;;9.70;2.50;;;21.80;74.70;;;;;;5047087;28;20571;-76
2023/05/16 07:38:16;;;;;;;6.90;3.10;;;20.80;76.40;;;;;;5053030;28;20446;-75
2023/05/16 07:40:44;;;;;;;7.27;3.03;;;20.00;77.40;;;;;;5051767;28;20948;-75
2023/05/16 07:43:10;;;;;;;8.40;3.67;;;19.00;79.30;;;;;;5069765;28;20555;-77
2023/05/16 07:45:39;;;;;;;14.57;2.87;;;18.10;81.10;;;;;;5056022;28;20537;-75
2023/05/16 07:48:06;;;;;;;11.23;2.40;;;17.30;83.40;;;;;;5062383;28;20447;-75
2023/05/16 07:50:33;;;;;;;13.18;3.70;;;16.50;85.80;;;;;;5050324;28;20227;-75
2023/05/16 07:53:01;;;;;;;8.45;3.20;;;16.10;87.70;;;;;;5048008;28;20224;-75
2023/05/16 07:55:29;;;;;;;13.35;2.78;;;15.40;90.80;;;;;;5049194;28;20206;-74
2023/05/16 07:57:56;;;;;;;15.10;3.70;;;14.50;96.90;;;;;;5060442;28;20206;-76
2023/05/16 08:00:24;;;;;;;3.97;2.30;;;13.90;99.90;;;;;;5058584;28;20557;-74
2023/05/16 08:02:51;;;;;;;12.63;2.60;;;13.40;99.90;;;;;;5049775;28;20304;-76
2023/05/16 08:05:19;;;;;;;5.15;1.90;;;13.30;99.90;;;;;;5047029;28;20195;-75
2023/05/16 08:07:46;;;;;;;5.20;1.92;;;13.50;99.90;;;;;;5053269;28;20203;-75
2023/05/16 08:10:13;;;;;;;7.63;2.95;;;13.70;99.90;;;;;;5053544;28;20853;-77
2023/05/16 08:12:41;;;;;;;14.10;2.97;;;14.40;99.90;;;;;;5061045;28;20225;-79
2023/05/16 08:15:09;;;;;;;5.83;2.23;;;15.90;99.90;;;;;;5053367;28;20226;-78
2023/05/16 08:17:37;;;;;;;10.57;2.90;;;17.90;93.90;;;;;;5053859;28;20464;-77
2023/05/16 08:20:10;;;;;;;6.40;1.80;;;18.90;90.40;;;;;;5057186;28;20458;-77
2023/05/16 08:22:36;;;;;;;7.23;1.80;;;20.00;88.30;;;;;;5062649;28;20477;-79
2023/05/16 08:25:04;;;;;;;6.70;2.30;;;21.00;84.10;;;;;;5063415;28;20449;-78
2023/05/16 08:27:31;;;;;;;10.63;2.47;;;22.20;82.70;;;;;;5047977;28;20454;-77
2023/05/16 08:30:00;;;;;;;12.07;2.50;;;23.00;79.90;;;;;;5054706;28;20446;-77
2023/05/16 08:32:27;;;;;;;10.97;2.97;;;23.70;76.90;;;;;;5052069;28;20597;-77
2023/05/16 08:34:54;;;;;;;9.00;3.30;;;22.70;75.00;;;;;;5053567;28;20547;-77
2023/05/16 08:37:22;;;;;;;7.37;2.70;;;21.10;80.30;;;;;;5061659;28;20453;-87
2023/05/16 08:39:49;;;;;;;10.97;3.30;;;19.30;86.90;;;;;;5059313;28;20454;-85
2023/05/16 08:42:17;;;;;;;8.20;2.43;;;18.10;90.50;;;;;;5067647;28;20570;-86
2023/05/16 08:44:44;;;;;;;12.37;1.90;;;17.00;91.50;;;;;;5064508;28;20451;-83
2023/05/16 08:47:21;;;;;;;11.20;2.73;;;17.20;94.20;;;;;;5065212;28;20457;-87
2023/05/16 08:49:51;;;;;;;9.00;2.67;;;18.70;92.50;;;;;;5062643;28;20469;-86
2023/05/16 08:52:20;;;;;;;10.03;3.30;;;20.10;90.80;;;;;;5067507;28;20838;-85
2023/05/16 08:54:50;;;;;;;6.33;2.20;;;20.60;87.10;;;;;;5073893;28;20455;-83
2023/05/16 08:57:20;;;;;;;13.83;4.50;;;20.60;85.80;;;;;;5072131;28;20560;-83
2023/05/16 08:59:47;;;;;;;12.40;2.87;;;20.50;84.50;;;;;;5068697;28;20533;-84
2023/05/16 09:02:15;;;;;;;5.40;1.93;;;19.70;82.00;;;;;;5063929;28;20519;-83
2023/05/16 09:04:47;;;;;;;8.30;2.27;;;19.70;83.80;;;;;;5059937;28;21012;-83
2023/05/16 09:07:14;;;;;;;8.60;2.70;;;20.50;81.40;;;;;;5056296;28;20920;-83
2023/05/16 09:09:42;;;;;;;7.13;2.80;;;21.40;78.40;;;;;;5059334;28;20478;-84
2023/05/16 09:12:09;;;;;;;6.30;2.67;;;21.40;76.50;;;;;;5060099;28;21029;-83
2023/05/16 09:14:37;;;;;;;5.03;2.23;;;21.30;76.10;;;;;;5065325;28;20837;-83
2023/05/16 09:17:06;;;;;;;8.07;2.73;;;21.70;76.30;;;;;;5057970;28;20529;-80
2023/05/16 09:19:39;;;;;;;7.47;2.80;;;21.90;75.40;;;;;;5070916;28;20514;-81
2023/05/16 09:22:10;;;;;;;12.93;3.50;;;21.40;75.00;;;;;;5064995;28;20572;-80
2023/05/16 09:24:39;;;;;;;12.23;2.80;;;21.10;74.20;;;;;;5058020;28;20526;-81
2023/05/16 09:27:10;;;;;;;13.30;3.83;;;20.20;74.90;;;;;;5056308;28;20458;-79
2023/05/16 09:29:37;;;;;;;6.53;2.20;;;19.00;75.80;;;;;;5056078;28;20533;-79
2023/05/16 09:32:12;;;;;;;6.90;3.63;;;17.80;77.50;;;;;;5049437;28;20564;-79
2023/05/16 09:34:42;;;;;;;7.97;2.50;;;17.50;81.40;;;;;;5054743;28;20529;-82
2023/05/16 09:37:11;;;;;;;5.63;2.03;;;17.80;81.90;;;;;;5056605;28;20477;-77
2023/05/16 09:39:40;;;;;;;5.07;1.73;;;19.00;79.70;;;;;;5060157;28;20449;-78
2023/05/16 09:42:11;;;;;;;7.77;2.90;;;20.00;76.80;;;;;;5054987;28;20464;-77
2023/05/16 09:44:39;;;;;;;4.33;2.20;;;21.00;74.70;;;;;;5056133;28;20450;-78
2023/05/16 09:47:06;;;;;;;8.20;3.53;;;22.00;73.10;;;;;;5057741;28;20581;-77
2023/05/16 09:49:36;;;;;;;13.20;2.83;;;22.30;68.00;;;;;;5056565;28;20540;-76
2023/05/16 09:52:04;;;;;;;14.53;3.10;;;21.90;68.40;;;;;;5047656;28;20548;-78
2023/05/16 09:54:34;;;;;;;4.77;1.87;;;21.40;69.80;;;;;;5054839;28;20516;-77
2023/05/16 09:57:01;;;;;;;7.13;2.83;;;20.60;72.50;;;;;;5053950;28;20453;-76
2023/05/16 09:59:29;;;;;;;10.13;2.40;;;20.10;73.00;;;;;;5052623;28;20477;-79
2023/05/16 10:01:59;;;;;;;15.37;3.93;;;19.40;73.80;;;;;;5057100;28;20453;-76
2023/05/16 10:04:26;;;;;;;5.93;2.30;;;18.40;77.70;;;;;;5059614;28;20487;-77
2023/05/16 10:06:55;;;;;;;10.23;3.30;;;17.50;80.50;;;;;;5054706;28;20549;-78
2023/05/16 10:09:23;;;;;;;9.93;3.90;;;16.80;84.60;;;;;;5051207;28;20436;-78
2023/05/16 10:11:53;;;;;;;13.68;3.05;;;16.30;86.20;;;;;;5067876;28;20243;-76
2023/05/16 10:14:30;;;;;;;7.00;2.55;;;15.50;87.50;;;;;;5062789;28;20208;-78
2023/05/16 10:16:58;;;;;;;8.35;2.63;;;15.10;88.50;;;;;;5050103;28;20192;-78
2023/05/16 10:19:25;;;;;;;7.85;2.15;;;14.80;89.10;;;;;;5048026;28;20203;-77
2023/05/16 10:21:58;;;;;;;11.48;1.98;;;14.70;90.10;;;;;;5053135;28;20223;-78
2023/05/16 10:24:31;;;;;;;5.95;2.03;;;14.60;89.60;;;;;;5046527;28;20203;-78
2023/05/16 10:27:02;;;;;;;7.55;1.90;;;14.30;89.20;;;;;;5050791;28;20282;-76
2023/05/16 10:29:30;;;;;;;7.95;1.80;;;14.30;90.20;;;;;;5051137;28;20261;-78
2023/05/16 10:31:57;;;;;;;5.18;1.67;;;14.30;91.00;;;;;;5055077;28;20587;-78
2023/05/16 10:34:25;;;;;;;8.40;2.33;;;14.40;92.60;;;;;;5062908;28;20709;-77
2023/05/16 10:36:53;;;;;;;3.17;1.55;;;14.10;94.90;;;;;;5050537;28;20278;-77
2023/05/16 10:39:20;;;;;;;4.78;1.77;;;14.10;96.40;;;;;;5056338;28;20290;-77
2023/05/16 10:41:48;;;;;;;9.98;2.10;;;14.30;96.60;;;;;;5048672;28;20311;-77
2023/05/16 10:44:17;;;;;;;6.30;3.08;;;14.90;97.20;;;;;;5052472;28;20201;-76
2023/05/16 10:46:47;;;;;;;9.13;2.15;;;15.50;95.10;;;;;;5054654;28;20247;-77
2023/05/16 10:49:21;;;;;;;6.47;2.53;;;15.70;92.30;;;;;;5054492;28;20208;-77
2023/05/16 10:52:06;;;;;;;10.00;3.75;;;16.00;92.90;;;;;;5055041;28;20271;-76
2023/05/16 10:54:38;;;;;;;6.60;3.42;;;16.40;92.10;;;;;;5052715;28;20202;-76
2023/05/16 10:57:10;;;;;;;12.98;3.90;;;16.80;90.80;;;;;;5046728;28;20198;-77
2023/05/16 10:59:43;;;;;;;12.97;4.10;;;16.70;91.30;;;;;;5050810;28;20225;-77
2023/05/16 11:02:28;;;;;;;5.32;2.80;;;16.70;92.10;;;;;;5041648;28;20832;-76
2023/05/16 11:04:58;;;;;;;6.60;1.85;;;16.40;91.90;;;;;;5052667;28;20214;-77
2023/05/16 11:07:26;;;;;;;6.00;2.50;;;16.20;90.40;;;;;;5051532;28;20307;-77
2023/05/16 11:10:07;;;;;;;5.50;2.22;;;15.90;87.60;;;;;;5054761;28;20733;-77
2023/05/16 11:12:45;;;;;;;4.50;2.50;;;15.50;85.40;;;;;;5056740;28;20241;-78
2023/05/16 11:15:23;;;;;;;8.40;2.45;;;15.40;87.20;;;;;;5031639;28;20270;-77
2023/05/16 11:17:50;;;;;;;3.50;1.77;;;15.50;88.10;;;;;;5045292;28;20200;-77
2023/05/16 11:20:30;;;;;;;6.38;1.90;;;15.40;87.20;;;;;;5053591;28;20572;-77
2023/05/16 11:23:25;;;;;;;5.85;2.28;;;15.40;87.00;;;;;;5051404;28;20310;-75
2023/05/16 11:25:54;;;;;;;4.40;1.77;;;15.40;87.30;;;;;;5013256;28;20717;-76
2023/05/16 11:28:23;;;;;;;5.25;2.30;;;15.70;86.70;;;;;;5044685;28;20200;-77
2023/05/16 11:30:55;;;;;;;9.95;3.28;;;16.00;86.60;;;;;;5046338;28;20201;-75
2023/05/16 11:33:22;;;;;;;12.05;3.47;;;16.30;87.40;;;;;;5051934;28;20626;-76
2023/05/16 11:36:03;;;;;;;4.75;2.00;;;16.70;86.00;;;;;;5053037;28;20229;-76
2023/05/16 11:38:31;;;;;;;6.10;2.20;;;16.70;86.50;;;;;;5036714;28;20249;-76
2023/05/16 11:41:06;;;;;;;5.35;1.60;;;16.80;86.50;;;;;;5050584;28;20452;-76
2023/05/16 11:43:43;;;;;;;5.30;2.17;;;16.90;87.00;;;;;;5052868;28;20229;-77
2023/05/16 11:46:16;;;;;;;7.20;2.03;;;17.40;86.50;;;;;;5049607;28;20306;-77
2023/05/16 11:48:45;;;;;;;5.60;2.13;;;17.60;86.80;;;;;;5038633;28;20446;-76
2023/05/16 11:51:13;;;;;;;5.40;2.03;;;17.60;87.20;;;;;;5052551;28;20472;-77
2023/05/16 11:53:40;;;;;;;3.67;2.83;;;17.60;86.00;;;;;;5052949;28;20475;-75
2023/05/16 11:56:10;;;;;;;9.93;2.90;;;17.40;87.20;;;;;;5046677;28;20951;-76
2023/05/16 11:58:37;;;;;;;8.18;2.50;;;16.60;87.00;;;;;;5054027;28;20444;-78
2023/05/16 12:01:04;;;;;;;16.15;3.22;;;16.20;86.30;;;;;;5054577;28;20739;-77
2023/05/16 12:03:34;;;;;;;18.30;3.20;;;15.80;90.00;;;;;;5050582;28;20222;-77
2023/05/16 12:06:04;;;;;;;7.88;2.13;;;15.40;90.40;;;;;;5035188;28;20232;-77
2023/05/16 12:08:31;;;;;;;3.88;2.17;;;15.00;90.40;;;;;;5050738;28;20200;-77
2023/05/16 12:11:00;;;;;;;6.57;2.17;;;14.50;91.70;;;;;;5049511;28;20223;-78
2023/05/16 12:13:27;;;;;;;5.65;1.77;;;14.10;93.00;;;;;;5053146;28;20227;-76
2023/05/16 12:15:54;;;;;;;5.47;2.10;;;13.90;94.10;;;;;;5058203;28;20211;-77
2023/05/16 12:18:23;;;;;;;3.58;1.58;;;13.80;94.20;;;;;;5057517;28;20192;-78
2023/05/16 12:20:52;;;;;;;5.28;1.90;;;14.10;95.90;;;;;;5054057;28;20301;-77
2023/05/16 12:23:19;;;;;;;9.35;1.98;;;14.40;94.60;;;;;;5057058;28;20575;-77
2023/05/16 12:25:48;;;;;;;4.00;1.85;;;14.50;94.70;;;;;;5056340;28;20257;-78
2023/05/16 12:28:15;;;;;;;3.67;1.50;;;14.60;93.40;;;;;;5056971;28;20199;-75
2023/05/16 12:30:46;;;;;;;9.23;2.42;;;14.60;91.90;;;;;;5057382;28;20220;-76
2023/05/16 12:33:15;;;;;;;7.32;2.97;;;14.50;91.70;;;;;;5058432;28;20242;-75
2023/05/16 12:35:44;;;;;;;8.57;3.45;;;14.70;92.50;;;;;;5060022;28;20250;-75
2023/05/16 12:38:14;;;;;;;13.88;2.80;;;15.00;92.10;;;;;;5056613;28;20280;-77
2023/05/16 12:40:43;;;;;;;8.18;2.00;;;15.30;90.90;;;;;;5060513;28;20220;-76
2023/05/16 12:43:14;;;;;;;11.20;2.97;;;15.50;91.00;;;;;;5056481;28;20258;-78
2023/05/16 12:45:41;;;;;;;12.13;3.25;;;15.30;93.40;;;;;;5066732;28;20215;-82
2023/05/16 12:48:12;;;;;;;3.28;1.90;;;14.70;95.50;;;;;;5064254;28;20210;-86